sensor_id;sensor_type;location;lat;lon;timestamp;P1;durP1;ratioP1;P2;durP2;ratioP2
68315;SDS011;55508;54.368;18.406;2022-12-05T00:01:15;191.75;;;37.25;;
68315;SDS011;55508;54.368;18.406;2022-12-05T00:03:50;260.85;;;39.00;;
68315;SDS011;55508;54.368;18.406;2022-12-05T00:06:19;306.25;;;41.53;;
68315;SDS011;55508;54.368;18.406;2022-12-05T00:08:47;276.85;;;40.20;;
68315;SDS011;55508;54.368;18.406;2022-12-05T00:11:19;176.25;;;37.08;;
68315;SDS011;55508;54.368;18.406;2022-12-05T00:13:48;139.70;;;31.42;;
68315;SDS011;55508;54.368;18.406;2022-12-05T00:16:17;114.25;;;29.45;;
68315;SDS011;55508;54.368;18.406;2022-12-05T00:18:45;133.82;;;32.35;;
68315;SDS011;55508;54.368;18.406;2022-12-05T00:21:14;108.45;;;28.35;;
68315;SDS011;55508;54.368;18.406;2022-12-05T00:23:52;118.32;;;29.40;;
68315;SDS011;55508;54.368;18.406;2022-12-05T00:26:20;143.15;;;30.27;;
68315;SDS011;55508;54.368;18.406;2022-12-05T00:28:48;158.63;;;30.67;;
68315;SDS011;55508;54.368;18.406;2022-12-05T00:31:16;166.40;;;31.08;;
68315;SDS011;55508;54.368;18.406;2022-12-05T00:33:46;190.57;;;30.42;;
68315;SDS011;55508;54.368;18.406;2022-12-05T00:36:14;287.45;;;36.55;;
68315;SDS011;55508;54.368;18.406;2022-12-05T00:38:45;284.98;;;37.35;;
68315;SDS011;55508;54.368;18.406;2022-12-05T00:41:16;267.75;;;38.65;;
68315;SDS011;55508;54.368;18.406;2022-12-05T00:43:45;265.35;;;37.20;;
68315;SDS011;55508;54.368;18.406;2022-12-05T00:46:14;174.07;;;33.08;;
68315;SDS011;55508;54.368;18.406;2022-12-05T00:48:43;344.83;;;38.20;;
68315;SDS011;55508;54.368;18.406;2022-12-05T00:51:11;221.75;;;34.33;;
68315;SDS011;55508;54.368;18.406;2022-12-05T00:53:40;211.27;;;34.85;;
68315;SDS011;55508;54.368;18.406;2022-12-05T00:56:09;153.98;;;32.20;;
68315;SDS011;55508;54.368;18.406;2022-12-05T00:58:41;145.60;;;30.58;;
68315;SDS011;55508;54.368;18.406;2022-12-05T01:01:10;103.75;;;23.83;;
68315;SDS011;55508;54.368;18.406;2022-12-05T01:03:41;101.10;;;28.48;;
68315;SDS011;55508;54.368;18.406;2022-12-05T01:06:09;114.15;;;29.92;;
68315;SDS011;55508;54.368;18.406;2022-12-05T01:08:38;102.68;;;26.55;;
68315;SDS011;55508;54.368;18.406;2022-12-05T01:11:06;130.20;;;28.30;;
68315;SDS011;55508;54.368;18.406;2022-12-05T01:13:34;100.63;;;28.75;;
68315;SDS011;55508;54.368;18.406;2022-12-05T01:16:02;90.13;;;26.65;;
68315;SDS011;55508;54.368;18.406;2022-12-05T01:18:29;96.35;;;27.83;;
68315;SDS011;55508;54.368;18.406;2022-12-05T01:20:57;103.43;;;27.80;;
68315;SDS011;55508;54.368;18.406;2022-12-05T01:23:24;105.25;;;27.30;;
68315;SDS011;55508;54.368;18.406;2022-12-05T01:25:51;129.00;;;28.58;;
68315;SDS011;55508;54.368;18.406;2022-12-05T01:28:19;160.82;;;32.97;;
68315;SDS011;55508;54.368;18.406;2022-12-05T01:30:47;117.63;;;27.38;;
68315;SDS011;55508;54.368;18.406;2022-12-05T01:33:15;162.38;;;30.67;;
68315;SDS011;55508;54.368;18.406;2022-12-05T01:35:43;147.65;;;29.77;;
68315;SDS011;55508;54.368;18.406;2022-12-05T01:38:11;155.52;;;31.00;;
68315;SDS011;55508;54.368;18.406;2022-12-05T01:40:39;118.63;;;30.27;;
68315;SDS011;55508;54.368;18.406;2022-12-05T01:43:16;117.07;;;29.85;;
68315;SDS011;55508;54.368;18.406;2022-12-05T01:45:44;112.90;;;29.17;;
68315;SDS011;55508;54.368;18.406;2022-12-05T01:48:21;112.97;;;28.92;;
68315;SDS011;55508;54.368;18.406;2022-12-05T01:50:54;130.65;;;29.88;;
68315;SDS011;55508;54.368;18.406;2022-12-05T01:53:21;98.72;;;27.58;;
68315;SDS011;55508;54.368;18.406;2022-12-05T01:55:49;107.10;;;28.85;;
68315;SDS011;55508;54.368;18.406;2022-12-05T01:58:16;119.82;;;27.58;;
68315;SDS011;55508;54.368;18.406;2022-12-05T02:00:44;158.25;;;29.80;;
68315;SDS011;55508;54.368;18.406;2022-12-05T02:03:14;126.68;;;27.58;;
68315;SDS011;55508;54.368;18.406;2022-12-05T02:05:45;119.95;;;27.77;;
68315;SDS011;55508;54.368;18.406;2022-12-05T02:08:14;112.13;;;27.15;;
68315;SDS011;55508;54.368;18.406;2022-12-05T02:10:43;111.22;;;28.83;;
68315;SDS011;55508;54.368;18.406;2022-12-05T02:21:32;127.88;;;28.55;;
68315;SDS011;55508;54.368;18.406;2022-12-05T02:27:10;142.38;;;29.27;;
68315;SDS011;55508;54.368;18.406;2022-12-05T02:32:19;102.53;;;27.63;;
68315;SDS011;55508;54.368;18.406;2022-12-05T02:34:59;112.07;;;29.30;;
68315;SDS011;55508;54.368;18.406;2022-12-05T02:37:42;131.80;;;30.90;;
68315;SDS011;55508;54.368;18.406;2022-12-05T02:40:20;110.78;;;29.10;;
68315;SDS011;55508;54.368;18.406;2022-12-05T02:42:58;136.27;;;30.73;;
68315;SDS011;55508;54.368;18.406;2022-12-05T02:45:27;158.05;;;31.48;;
68315;SDS011;55508;54.368;18.406;2022-12-05T02:47:57;222.38;;;35.63;;
68315;SDS011;55508;54.368;18.406;2022-12-05T02:50:27;155.15;;;31.85;;
68315;SDS011;55508;54.368;18.406;2022-12-05T02:52:58;162.27;;;30.05;;
68315;SDS011;55508;54.368;18.406;2022-12-05T02:55:30;112.00;;;24.88;;
68315;SDS011;55508;54.368;18.406;2022-12-05T02:57:59;214.35;;;33.22;;
68315;SDS011;55508;54.368;18.406;2022-12-05T03:00:29;170.33;;;31.30;;
68315;SDS011;55508;54.368;18.406;2022-12-05T03:02:57;131.70;;;29.65;;
68315;SDS011;55508;54.368;18.406;2022-12-05T03:07:55;155.77;;;31.83;;
68315;SDS011;55508;54.368;18.406;2022-12-05T03:10:24;152.52;;;31.58;;
68315;SDS011;55508;54.368;18.406;2022-12-05T03:12:55;181.50;;;30.27;;
68315;SDS011;55508;54.368;18.406;2022-12-05T03:15:25;184.52;;;31.90;;
68315;SDS011;55508;54.368;18.406;2022-12-05T03:17:56;183.35;;;32.17;;
68315;SDS011;55508;54.368;18.406;2022-12-05T03:20:52;256.77;;;35.50;;
68315;SDS011;55508;54.368;18.406;2022-12-05T03:23:37;171.93;;;33.47;;
68315;SDS011;55508;54.368;18.406;2022-12-05T03:26:09;161.82;;;33.65;;
68315;SDS011;55508;54.368;18.406;2022-12-05T03:31:33;135.60;;;33.30;;
68315;SDS011;55508;54.368;18.406;2022-12-05T03:34:07;144.18;;;32.78;;
68315;SDS011;55508;54.368;18.406;2022-12-05T03:36:42;130.15;;;30.80;;
68315;SDS011;55508;54.368;18.406;2022-12-05T03:39:15;123.88;;;28.08;;
68315;SDS011;55508;54.368;18.406;2022-12-05T03:41:51;121.75;;;29.88;;
68315;SDS011;55508;54.368;18.406;2022-12-05T03:47:11;92.70;;;26.17;;
68315;SDS011;55508;54.368;18.406;2022-12-05T03:49:51;92.60;;;26.50;;
68315;SDS011;55508;54.368;18.406;2022-12-05T03:52:30;81.72;;;23.20;;
68315;SDS011;55508;54.368;18.406;2022-12-05T03:55:21;87.15;;;24.58;;
68315;SDS011;55508;54.368;18.406;2022-12-05T03:57:54;95.95;;;26.55;;
68315;SDS011;55508;54.368;18.406;2022-12-05T04:00:42;88.68;;;25.70;;
68315;SDS011;55508;54.368;18.406;2022-12-05T04:06:11;90.20;;;26.60;;
68315;SDS011;55508;54.368;18.406;2022-12-05T04:08:53;94.78;;;26.13;;
68315;SDS011;55508;54.368;18.406;2022-12-05T04:11:24;98.65;;;27.83;;
68315;SDS011;55508;54.368;18.406;2022-12-05T04:17:06;81.45;;;22.48;;
68315;SDS011;55508;54.368;18.406;2022-12-05T04:19:47;85.33;;;21.50;;
68315;SDS011;55508;54.368;18.406;2022-12-05T04:22:39;113.82;;;29.00;;
68315;SDS011;55508;54.368;18.406;2022-12-05T04:25:08;150.93;;;30.80;;
68315;SDS011;55508;54.368;18.406;2022-12-05T04:36:22;171.68;;;34.25;;
68315;SDS011;55508;54.368;18.406;2022-12-05T04:38:58;232.90;;;36.22;;
68315;SDS011;55508;54.368;18.406;2022-12-05T04:43:58;157.77;;;30.92;;
68315;SDS011;55508;54.368;18.406;2022-12-05T04:46:28;219.88;;;36.00;;
68315;SDS011;55508;54.368;18.406;2022-12-05T04:48:57;221.25;;;37.58;;
68315;SDS011;55508;54.368;18.406;2022-12-05T04:51:26;199.90;;;44.53;;
68315;SDS011;55508;54.368;18.406;2022-12-05T04:53:58;226.70;;;38.50;;
68315;SDS011;55508;54.368;18.406;2022-12-05T04:56:29;156.60;;;36.45;;
68315;SDS011;55508;54.368;18.406;2022-12-05T04:58:57;126.57;;;31.42;;
68315;SDS011;55508;54.368;18.406;2022-12-05T05:01:44;100.72;;;26.80;;
68315;SDS011;55508;54.368;18.406;2022-12-05T05:04:16;105.88;;;27.88;;
68315;SDS011;55508;54.368;18.406;2022-12-05T05:06:46;100.97;;;26.50;;
68315;SDS011;55508;54.368;18.406;2022-12-05T05:09:14;99.63;;;27.92;;
68315;SDS011;55508;54.368;18.406;2022-12-05T05:11:41;108.68;;;30.08;;
68315;SDS011;55508;54.368;18.406;2022-12-05T05:14:08;132.73;;;31.33;;
68315;SDS011;55508;54.368;18.406;2022-12-05T05:16:37;115.85;;;29.42;;
68315;SDS011;55508;54.368;18.406;2022-12-05T05:19:05;123.50;;;31.08;;
68315;SDS011;55508;54.368;18.406;2022-12-05T05:21:34;166.38;;;31.95;;
68315;SDS011;55508;54.368;18.406;2022-12-05T05:24:03;154.13;;;31.77;;
68315;SDS011;55508;54.368;18.406;2022-12-05T05:26:33;138.13;;;30.55;;
68315;SDS011;55508;54.368;18.406;2022-12-05T05:29:02;111.35;;;27.05;;
68315;SDS011;55508;54.368;18.406;2022-12-05T05:31:30;104.85;;;26.40;;
68315;SDS011;55508;54.368;18.406;2022-12-05T05:33:58;95.15;;;25.98;;
68315;SDS011;55508;54.368;18.406;2022-12-05T05:36:34;100.25;;;27.90;;
68315;SDS011;55508;54.368;18.406;2022-12-05T05:39:02;100.78;;;27.40;;
68315;SDS011;55508;54.368;18.406;2022-12-05T05:41:33;91.63;;;27.35;;
68315;SDS011;55508;54.368;18.406;2022-12-05T05:44:01;94.13;;;28.85;;
68315;SDS011;55508;54.368;18.406;2022-12-05T05:46:30;100.32;;;27.60;;
68315;SDS011;55508;54.368;18.406;2022-12-05T05:48:59;123.38;;;33.22;;
68315;SDS011;55508;54.368;18.406;2022-12-05T05:51:26;117.95;;;31.05;;
68315;SDS011;55508;54.368;18.406;2022-12-05T05:53:55;126.97;;;30.40;;
68315;SDS011;55508;54.368;18.406;2022-12-05T05:56:23;126.13;;;30.05;;
68315;SDS011;55508;54.368;18.406;2022-12-05T05:58:58;148.30;;;31.05;;
68315;SDS011;55508;54.368;18.406;2022-12-05T06:01:27;102.43;;;27.80;;
68315;SDS011;55508;54.368;18.406;2022-12-05T06:03:55;102.93;;;26.95;;
68315;SDS011;55508;54.368;18.406;2022-12-05T06:06:23;96.03;;;29.00;;
68315;SDS011;55508;54.368;18.406;2022-12-05T06:08:51;100.72;;;27.73;;
68315;SDS011;55508;54.368;18.406;2022-12-05T06:11:19;85.82;;;27.10;;
68315;SDS011;55508;54.368;18.406;2022-12-05T06:13:53;87.63;;;27.90;;
68315;SDS011;55508;54.368;18.406;2022-12-05T06:16:21;87.82;;;26.35;;
68315;SDS011;55508;54.368;18.406;2022-12-05T06:18:48;81.80;;;26.42;;
68315;SDS011;55508;54.368;18.406;2022-12-05T06:21:17;97.50;;;27.30;;
68315;SDS011;55508;54.368;18.406;2022-12-05T06:23:44;91.88;;;25.70;;
68315;SDS011;55508;54.368;18.406;2022-12-05T06:26:12;104.18;;;27.58;;
68315;SDS011;55508;54.368;18.406;2022-12-05T06:28:41;113.15;;;29.52;;
68315;SDS011;55508;54.368;18.406;2022-12-05T06:31:10;93.78;;;27.10;;
68315;SDS011;55508;54.368;18.406;2022-12-05T06:33:42;101.38;;;28.08;;
68315;SDS011;55508;54.368;18.406;2022-12-05T06:36:10;99.10;;;28.75;;
68315;SDS011;55508;54.368;18.406;2022-12-05T06:38:39;131.18;;;29.90;;
68315;SDS011;55508;54.368;18.406;2022-12-05T06:41:09;113.78;;;27.77;;
68315;SDS011;55508;54.368;18.406;2022-12-05T06:43:37;94.43;;;26.58;;
68315;SDS011;55508;54.368;18.406;2022-12-05T06:46:05;97.13;;;28.65;;
68315;SDS011;55508;54.368;18.406;2022-12-05T06:48:33;93.13;;;27.38;;
68315;SDS011;55508;54.368;18.406;2022-12-05T06:51:01;98.90;;;30.20;;
68315;SDS011;55508;54.368;18.406;2022-12-05T06:53:28;99.15;;;27.15;;
68315;SDS011;55508;54.368;18.406;2022-12-05T06:55:59;111.90;;;28.70;;
68315;SDS011;55508;54.368;18.406;2022-12-05T06:58:29;121.18;;;30.85;;
68315;SDS011;55508;54.368;18.406;2022-12-05T07:00:56;101.07;;;28.23;;
68315;SDS011;55508;54.368;18.406;2022-12-05T07:03:42;109.35;;;28.55;;
68315;SDS011;55508;54.368;18.406;2022-12-05T07:06:09;113.22;;;28.17;;
68315;SDS011;55508;54.368;18.406;2022-12-05T07:08:37;112.47;;;29.77;;
68315;SDS011;55508;54.368;18.406;2022-12-05T07:11:04;107.82;;;28.83;;
68315;SDS011;55508;54.368;18.406;2022-12-05T07:13:31;112.03;;;29.77;;
68315;SDS011;55508;54.368;18.406;2022-12-05T07:15:58;128.18;;;31.40;;
68315;SDS011;55508;54.368;18.406;2022-12-05T07:18:26;112.88;;;30.83;;
68315;SDS011;55508;54.368;18.406;2022-12-05T07:20:57;106.53;;;31.63;;
68315;SDS011;55508;54.368;18.406;2022-12-05T07:23:41;149.13;;;31.90;;
68315;SDS011;55508;54.368;18.406;2022-12-05T07:26:17;134.80;;;32.20;;
68315;SDS011;55508;54.368;18.406;2022-12-05T07:28:46;130.63;;;30.02;;
68315;SDS011;55508;54.368;18.406;2022-12-05T07:31:15;134.98;;;33.05;;
68315;SDS011;55508;54.368;18.406;2022-12-05T07:33:44;132.98;;;32.47;;
68315;SDS011;55508;54.368;18.406;2022-12-05T07:36:15;118.30;;;30.75;;
68315;SDS011;55508;54.368;18.406;2022-12-05T07:38:43;160.25;;;34.35;;
68315;SDS011;55508;54.368;18.406;2022-12-05T07:41:18;129.55;;;32.10;;
68315;SDS011;55508;54.368;18.406;2022-12-05T07:43:46;116.93;;;32.17;;
68315;SDS011;55508;54.368;18.406;2022-12-05T07:46:13;141.52;;;30.85;;
68315;SDS011;55508;54.368;18.406;2022-12-05T07:48:41;147.23;;;35.38;;
68315;SDS011;55508;54.368;18.406;2022-12-05T07:51:08;132.85;;;34.85;;
68315;SDS011;55508;54.368;18.406;2022-12-05T07:53:36;129.00;;;33.28;;
68315;SDS011;55508;54.368;18.406;2022-12-05T07:56:05;127.32;;;31.88;;
68315;SDS011;55508;54.368;18.406;2022-12-05T07:58:33;128.07;;;30.75;;
68315;SDS011;55508;54.368;18.406;2022-12-05T08:01:08;125.28;;;31.73;;
68315;SDS011;55508;54.368;18.406;2022-12-05T08:03:37;153.60;;;34.83;;
68315;SDS011;55508;54.368;18.406;2022-12-05T08:06:06;151.20;;;34.30;;
68315;SDS011;55508;54.368;18.406;2022-12-05T08:08:37;131.65;;;32.90;;
68315;SDS011;55508;54.368;18.406;2022-12-05T08:11:05;99.30;;;30.92;;
68315;SDS011;55508;54.368;18.406;2022-12-05T08:13:37;95.45;;;28.73;;
68315;SDS011;55508;54.368;18.406;2022-12-05T08:16:06;87.63;;;29.05;;
68315;SDS011;55508;54.368;18.406;2022-12-05T08:18:36;93.80;;;30.08;;
68315;SDS011;55508;54.368;18.406;2022-12-05T08:21:13;103.07;;;29.95;;
68315;SDS011;55508;54.368;18.406;2022-12-05T08:23:43;112.03;;;29.80;;
68315;SDS011;55508;54.368;18.406;2022-12-05T08:26:12;131.98;;;31.83;;
68315;SDS011;55508;54.368;18.406;2022-12-05T08:28:41;170.65;;;34.30;;
68315;SDS011;55508;54.368;18.406;2022-12-05T08:31:10;124.10;;;30.92;;
68315;SDS011;55508;54.368;18.406;2022-12-05T08:33:42;139.68;;;32.58;;
68315;SDS011;55508;54.368;18.406;2022-12-05T08:36:10;133.82;;;31.58;;
68315;SDS011;55508;54.368;18.406;2022-12-05T08:38:41;156.55;;;31.20;;
68315;SDS011;55508;54.368;18.406;2022-12-05T08:41:10;196.20;;;33.60;;
68315;SDS011;55508;54.368;18.406;2022-12-05T08:43:39;137.30;;;30.50;;
68315;SDS011;55508;54.368;18.406;2022-12-05T08:46:06;130.68;;;32.22;;
68315;SDS011;55508;54.368;18.406;2022-12-05T08:48:34;130.88;;;33.00;;
68315;SDS011;55508;54.368;18.406;2022-12-05T08:51:09;116.38;;;31.00;;
68315;SDS011;55508;54.368;18.406;2022-12-05T08:53:37;110.85;;;31.23;;
68315;SDS011;55508;54.368;18.406;2022-12-05T08:56:10;110.47;;;31.38;;
68315;SDS011;55508;54.368;18.406;2022-12-05T08:58:37;106.15;;;30.55;;
68315;SDS011;55508;54.368;18.406;2022-12-05T09:03:43;114.38;;;33.40;;
68315;SDS011;55508;54.368;18.406;2022-12-05T09:06:21;118.75;;;32.55;;
68315;SDS011;55508;54.368;18.406;2022-12-05T09:08:53;102.13;;;31.02;;
68315;SDS011;55508;54.368;18.406;2022-12-05T09:11:23;105.28;;;31.20;;
68315;SDS011;55508;54.368;18.406;2022-12-05T09:13:55;96.88;;;30.75;;
68315;SDS011;55508;54.368;18.406;2022-12-05T09:16:24;107.93;;;31.70;;
68315;SDS011;55508;54.368;18.406;2022-12-05T09:19:05;118.65;;;32.38;;
68315;SDS011;55508;54.368;18.406;2022-12-05T09:21:36;94.63;;;29.50;;
68315;SDS011;55508;54.368;18.406;2022-12-05T09:24:03;108.45;;;30.75;;
68315;SDS011;55508;54.368;18.406;2022-12-05T09:26:30;114.53;;;31.95;;
68315;SDS011;55508;54.368;18.406;2022-12-05T09:28:58;123.22;;;32.78;;
68315;SDS011;55508;54.368;18.406;2022-12-05T09:31:25;107.28;;;30.35;;
68315;SDS011;55508;54.368;18.406;2022-12-05T09:33:53;112.03;;;32.30;;
68315;SDS011;55508;54.368;18.406;2022-12-05T09:36:21;106.18;;;28.88;;
68315;SDS011;55508;54.368;18.406;2022-12-05T09:38:50;115.10;;;33.90;;
68315;SDS011;55508;54.368;18.406;2022-12-05T09:44:33;98.00;;;32.28;;
68315;SDS011;55508;54.368;18.406;2022-12-05T09:53:01;109.20;;;32.78;;
68315;SDS011;55508;54.368;18.406;2022-12-05T09:58:42;96.70;;;31.60;;
68315;SDS011;55508;54.368;18.406;2022-12-05T10:04:22;124.65;;;35.40;;
68315;SDS011;55508;54.368;18.406;2022-12-05T10:09:47;182.43;;;37.95;;
68315;SDS011;55508;54.368;18.406;2022-12-05T10:18:01;172.30;;;37.00;;
68315;SDS011;55508;54.368;18.406;2022-12-05T10:20:36;144.10;;;35.65;;
68315;SDS011;55508;54.368;18.406;2022-12-05T10:23:16;131.10;;;33.75;;
68315;SDS011;55508;54.368;18.406;2022-12-05T10:26:14;105.30;;;33.55;;
68315;SDS011;55508;54.368;18.406;2022-12-05T10:28:48;103.60;;;33.90;;
68315;SDS011;55508;54.368;18.406;2022-12-05T10:31:17;113.00;;;32.97;;
68315;SDS011;55508;54.368;18.406;2022-12-05T10:33:50;105.68;;;33.88;;
68315;SDS011;55508;54.368;18.406;2022-12-05T10:36:24;126.00;;;34.83;;
68315;SDS011;55508;54.368;18.406;2022-12-05T10:38:53;117.70;;;31.80;;
68315;SDS011;55508;54.368;18.406;2022-12-05T10:41:22;110.18;;;30.83;;
68315;SDS011;55508;54.368;18.406;2022-12-05T10:43:49;97.35;;;31.85;;
68315;SDS011;55508;54.368;18.406;2022-12-05T10:46:16;112.65;;;33.40;;
68315;SDS011;55508;54.368;18.406;2022-12-05T10:48:44;107.32;;;31.70;;
68315;SDS011;55508;54.368;18.406;2022-12-05T10:51:12;123.28;;;31.63;;
68315;SDS011;55508;54.368;18.406;2022-12-05T10:53:46;122.70;;;32.75;;
68315;SDS011;55508;54.368;18.406;2022-12-05T10:59:05;128.38;;;32.33;;
68315;SDS011;55508;54.368;18.406;2022-12-05T11:01:36;127.40;;;32.90;;
68315;SDS011;55508;54.368;18.406;2022-12-05T11:04:23;130.82;;;32.00;;
68315;SDS011;55508;54.368;18.406;2022-12-05T11:07:00;165.98;;;32.28;;
68315;SDS011;55508;54.368;18.406;2022-12-05T11:09:32;194.55;;;35.38;;
68315;SDS011;55508;54.368;18.406;2022-12-05T11:12:03;168.10;;;35.65;;
68315;SDS011;55508;54.368;18.406;2022-12-05T11:14:31;147.13;;;35.40;;
68315;SDS011;55508;54.368;18.406;2022-12-05T11:17:00;179.15;;;35.85;;
68315;SDS011;55508;54.368;18.406;2022-12-05T11:19:32;214.88;;;39.17;;
68315;SDS011;55508;54.368;18.406;2022-12-05T11:22:01;231.57;;;38.08;;
68315;SDS011;55508;54.368;18.406;2022-12-05T11:24:31;222.18;;;37.97;;
68315;SDS011;55508;54.368;18.406;2022-12-05T11:27:19;196.20;;;35.95;;
68315;SDS011;55508;54.368;18.406;2022-12-05T11:30:04;149.40;;;37.20;;
68315;SDS011;55508;54.368;18.406;2022-12-05T11:32:44;165.25;;;38.05;;
68315;SDS011;55508;54.368;18.406;2022-12-05T11:35:17;155.85;;;38.72;;
68315;SDS011;55508;54.368;18.406;2022-12-05T11:37:53;179.75;;;39.47;;
68315;SDS011;55508;54.368;18.406;2022-12-05T12:02:20;204.63;;;39.63;;
68315;SDS011;55508;54.368;18.406;2022-12-05T12:13:22;208.73;;;42.20;;
68315;SDS011;55508;54.368;18.406;2022-12-05T12:24:26;167.95;;;41.55;;
68315;SDS011;55508;54.368;18.406;2022-12-05T12:38:05;203.20;;;41.85;;
68315;SDS011;55508;54.368;18.406;2022-12-05T12:40:56;171.57;;;36.50;;
68315;SDS011;55508;54.368;18.406;2022-12-05T12:48:56;240.55;;;40.28;;
68315;SDS011;55508;54.368;18.406;2022-12-05T12:51:30;254.98;;;43.10;;
68315;SDS011;55508;54.368;18.406;2022-12-05T12:57:24;215.40;;;41.03;;
68315;SDS011;55508;54.368;18.406;2022-12-05T13:03:21;283.20;;;45.97;;
68315;SDS011;55508;54.368;18.406;2022-12-05T13:06:01;204.43;;;41.10;;
68315;SDS011;55508;54.368;18.406;2022-12-05T13:11:21;174.90;;;40.33;;
68315;SDS011;55508;54.368;18.406;2022-12-05T13:16:39;209.65;;;40.92;;
68315;SDS011;55508;54.368;18.406;2022-12-05T13:19:37;196.75;;;43.20;;
68315;SDS011;55508;54.368;18.406;2022-12-05T13:22:20;220.77;;;44.63;;
68315;SDS011;55508;54.368;18.406;2022-12-05T13:24:49;214.80;;;44.83;;
68315;SDS011;55508;54.368;18.406;2022-12-05T13:27:17;327.50;;;50.58;;
68315;SDS011;55508;54.368;18.406;2022-12-05T13:29:53;268.80;;;47.95;;
68315;SDS011;55508;54.368;18.406;2022-12-05T13:32:35;237.77;;;45.13;;
68315;SDS011;55508;54.368;18.406;2022-12-05T13:37:33;251.05;;;45.50;;
68315;SDS011;55508;54.368;18.406;2022-12-05T13:43:19;181.55;;;38.90;;
68315;SDS011;55508;54.368;18.406;2022-12-05T13:46:07;214.07;;;43.60;;
68315;SDS011;55508;54.368;18.406;2022-12-05T13:48:40;216.40;;;45.35;;
68315;SDS011;55508;54.368;18.406;2022-12-05T13:51:12;168.80;;;43.85;;
68315;SDS011;55508;54.368;18.406;2022-12-05T13:53:49;191.60;;;45.28;;
68315;SDS011;55508;54.368;18.406;2022-12-05T13:56:28;170.23;;;41.45;;
68315;SDS011;55508;54.368;18.406;2022-12-05T14:07:41;178.18;;;44.95;;
68315;SDS011;55508;54.368;18.406;2022-12-05T14:10:19;140.48;;;40.90;;
68315;SDS011;55508;54.368;18.406;2022-12-05T14:15:43;175.18;;;44.85;;
68315;SDS011;55508;54.368;18.406;2022-12-05T14:18:17;166.30;;;43.95;;
68315;SDS011;55508;54.368;18.406;2022-12-05T14:21:13;166.85;;;41.85;;
68315;SDS011;55508;54.368;18.406;2022-12-05T14:23:54;156.63;;;43.22;;
68315;SDS011;55508;54.368;18.406;2022-12-05T14:32:29;190.30;;;45.92;;
68315;SDS011;55508;54.368;18.406;2022-12-05T14:37:49;213.48;;;47.45;;
68315;SDS011;55508;54.368;18.406;2022-12-05T14:40:31;172.48;;;46.63;;
68315;SDS011;55508;54.368;18.406;2022-12-05T14:45:34;224.55;;;44.15;;
68315;SDS011;55508;54.368;18.406;2022-12-05T14:50:56;189.75;;;42.35;;
68315;SDS011;55508;54.368;18.406;2022-12-05T14:53:31;222.55;;;41.63;;
68315;SDS011;55508;54.368;18.406;2022-12-05T15:04:39;246.55;;;46.13;;
68315;SDS011;55508;54.368;18.406;2022-12-05T15:07:11;205.32;;;45.88;;
68315;SDS011;55508;54.368;18.406;2022-12-05T15:12:37;230.15;;;43.60;;
68315;SDS011;55508;54.368;18.406;2022-12-05T15:18:24;352.45;;;49.10;;
68315;SDS011;55508;54.368;18.406;2022-12-05T15:23:52;329.35;;;49.58;;
68315;SDS011;55508;54.368;18.406;2022-12-05T15:26:36;268.23;;;48.90;;
68315;SDS011;55508;54.368;18.406;2022-12-05T15:31:52;420.50;;;56.97;;
68315;SDS011;55508;54.368;18.406;2022-12-05T15:37:17;263.60;;;50.85;;
68315;SDS011;55508;54.368;18.406;2022-12-05T15:39:59;305.48;;;50.40;;
68315;SDS011;55508;54.368;18.406;2022-12-05T15:42:31;224.13;;;49.42;;
68315;SDS011;55508;54.368;18.406;2022-12-05T15:47:53;339.73;;;56.92;;
68315;SDS011;55508;54.368;18.406;2022-12-05T15:50:48;248.95;;;47.65;;
68315;SDS011;55508;54.368;18.406;2022-12-05T15:53:19;340.73;;;53.33;;
68315;SDS011;55508;54.368;18.406;2022-12-05T15:55:59;360.00;;;69.63;;
68315;SDS011;55508;54.368;18.406;2022-12-05T15:58:33;254.40;;;48.53;;
68315;SDS011;55508;54.368;18.406;2022-12-05T16:03:39;267.27;;;48.17;;
68315;SDS011;55508;54.368;18.406;2022-12-05T16:06:13;248.07;;;52.72;;
68315;SDS011;55508;54.368;18.406;2022-12-05T16:08:44;326.38;;;63.35;;
68315;SDS011;55508;54.368;18.406;2022-12-05T16:11:12;265.38;;;51.38;;
68315;SDS011;55508;54.368;18.406;2022-12-05T16:13:41;307.85;;;66.65;;
68315;SDS011;55508;54.368;18.406;2022-12-05T16:16:13;275.35;;;57.47;;
68315;SDS011;55508;54.368;18.406;2022-12-05T16:19:02;252.75;;;58.92;;
68315;SDS011;55508;54.368;18.406;2022-12-05T16:21:35;188.55;;;44.58;;
68315;SDS011;55508;54.368;18.406;2022-12-05T16:26:57;237.77;;;49.97;;
68315;SDS011;55508;54.368;18.406;2022-12-05T16:29:26;262.35;;;54.10;;
68315;SDS011;55508;54.368;18.406;2022-12-05T16:31:55;177.98;;;42.50;;
68315;SDS011;55508;54.368;18.406;2022-12-05T16:34:24;254.80;;;55.45;;
68315;SDS011;55508;54.368;18.406;2022-12-05T16:36:52;165.90;;;44.70;;
68315;SDS011;55508;54.368;18.406;2022-12-05T16:39:21;244.25;;;49.13;;
68315;SDS011;55508;54.368;18.406;2022-12-05T16:41:49;255.05;;;50.20;;
68315;SDS011;55508;54.368;18.406;2022-12-05T16:46:54;198.85;;;46.22;;
68315;SDS011;55508;54.368;18.406;2022-12-05T16:49:34;188.02;;;44.95;;
68315;SDS011;55508;54.368;18.406;2022-12-05T16:52:12;193.13;;;46.70;;
68315;SDS011;55508;54.368;18.406;2022-12-05T16:54:44;253.82;;;56.85;;
68315;SDS011;55508;54.368;18.406;2022-12-05T16:59:45;210.35;;;47.60;;
68315;SDS011;55508;54.368;18.406;2022-12-05T17:02:17;223.40;;;51.10;;
68315;SDS011;55508;54.368;18.406;2022-12-05T17:04:46;244.88;;;55.28;;
68315;SDS011;55508;54.368;18.406;2022-12-05T17:07:13;215.05;;;50.20;;
68315;SDS011;55508;54.368;18.406;2022-12-05T17:09:40;247.93;;;53.13;;
68315;SDS011;55508;54.368;18.406;2022-12-05T17:12:17;244.60;;;61.50;;
68315;SDS011;55508;54.368;18.406;2022-12-05T17:14:48;274.10;;;48.72;;
68315;SDS011;55508;54.368;18.406;2022-12-05T17:17:16;291.88;;;55.63;;
68315;SDS011;55508;54.368;18.406;2022-12-05T17:19:44;228.55;;;54.35;;
68315;SDS011;55508;54.368;18.406;2022-12-05T17:22:12;335.67;;;57.33;;
68315;SDS011;55508;54.368;18.406;2022-12-05T17:24:43;242.82;;;50.53;;
68315;SDS011;55508;54.368;18.406;2022-12-05T17:27:11;333.50;;;62.47;;
68315;SDS011;55508;54.368;18.406;2022-12-05T17:29:40;243.63;;;53.28;;
68315;SDS011;55508;54.368;18.406;2022-12-05T17:32:08;398.95;;;64.57;;
68315;SDS011;55508;54.368;18.406;2022-12-05T17:34:37;415.38;;;65.97;;
68315;SDS011;55508;54.368;18.406;2022-12-05T17:37:04;355.70;;;56.25;;
68315;SDS011;55508;54.368;18.406;2022-12-05T17:39:31;241.50;;;49.20;;
68315;SDS011;55508;54.368;18.406;2022-12-05T17:42:02;351.10;;;53.95;;
68315;SDS011;55508;54.368;18.406;2022-12-05T17:44:29;293.00;;;52.55;;
68315;SDS011;55508;54.368;18.406;2022-12-05T17:46:56;413.55;;;58.38;;
68315;SDS011;55508;54.368;18.406;2022-12-05T17:49:32;347.40;;;53.35;;